Time;durP1;ratioP1;P1;durP2;ratioP2;P2;SDS_P1;SDS_P2;PMS_P1;PMS_P2;Temp;Humidity;BMP_temperature;BMP_pressure;BME280_temperature;BME280_humidity;BME280_pressure;Samples;Min_cycle;Max_cycle;Signal;HPM_P1;HPM_P2
2022/08/01 00:01:23;;;;;;;2.03;0.85;;;22.70;63.00;;;;;;6228699;28;20534;-79
2022/08/01 00:04:25;;;;;;;2.83;1.30;;;22.60;63.20;;;;;;6229642;28;20059;-79
2022/08/01 00:07:28;;;;;;;4.57;1.15;;;22.60;63.50;;;;;;6229539;28;20049;-78
2022/08/01 00:10:30;;;;;;;4.20;1.00;;;22.50;63.70;;;;;;6228903;28;20052;-80
2022/08/01 00:13:31;;;;;;;2.22;1.10;;;22.60;63.90;;;;;;6229583;28;20046;-79
2022/08/01 00:16:33;;;;;;;2.63;1.20;;;22.60;64.00;;;;;;6228449;28;20057;-76
2022/08/01 00:19:35;;;;;;;1.05;0.75;;;22.60;64.20;;;;;;6229957;28;20057;-77
2022/08/01 00:22:39;;;;;;;1.77;1.00;;;22.50;64.40;;;;;;6228551;28;20056;-78
2022/08/01 00:25:40;;;;;;;1.80;1.00;;;22.40;64.50;;;;;;6229388;28;20046;-79
2022/08/01 00:28:42;;;;;;;1.77;0.90;;;22.40;64.90;;;;;;6228521;28;20049;-80
2022/08/01 00:31:44;;;;;;;2.53;1.20;;;22.40;65.20;;;;;;6225539;28;20499;-79
2022/08/01 00:34:45;;;;;;;2.85;1.30;;;22.40;65.50;;;;;;6228234;28;20046;-77
2022/08/01 00:37:48;;;;;;;3.15;1.05;;;22.30;65.60;;;;;;6232936;28;20042;-78
2022/08/01 00:40:50;;;;;;;4.65;1.30;;;22.30;65.80;;;;;;6233804;28;20053;-79
2022/08/01 00:43:52;;;;;;;2.90;1.25;;;22.30;66.90;;;;;;6225295;28;20060;-78
2022/08/01 00:46:54;;;;;;;1.38;1.08;;;22.20;66.50;;;;;;6229481;28;20046;-80
2022/08/01 00:49:56;;;;;;;2.47;1.23;;;22.20;66.70;;;;;;6229651;28;20076;-79
2022/08/01 00:53:00;;;;;;;5.15;1.40;;;22.20;67.00;;;;;;6229450;28;20141;-79
2022/08/01 00:56:02;;;;;;;1.48;0.77;;;22.20;67.30;;;;;;6229209;28;20072;-79
2022/08/01 00:59:05;;;;;;;2.50;1.25;;;22.20;67.60;;;;;;6229370;28;20492;-80
2022/08/01 01:02:07;;;;;;;2.97;1.35;;;22.20;67.80;;;;;;6229274;28;20103;-78
2022/08/01 01:05:09;;;;;;;3.47;1.27;;;22.10;68.00;;;;;;6229385;28;20046;-78
2022/08/01 01:08:19;;;;;;;2.00;1.23;;;22.10;68.10;;;;;;6227707;28;20050;-78
2022/08/01 01:11:29;;;;;;;1.90;0.93;;;22.10;68.40;;;;;;6228648;28;20439;-77
2022/08/01 01:14:37;;;;;;;1.60;1.17;;;22.10;68.70;;;;;;6228102;28;20050;-79
2022/08/01 01:17:46;;;;;;;6.65;1.48;;;22.10;68.90;;;;;;6228056;28;20507;-79
2022/08/01 01:20:58;;;;;;;1.88;0.95;;;22.00;69.10;;;;;;6227228;28;20048;-79
2022/08/01 01:24:11;;;;;;;2.58;1.33;;;22.00;69.30;;;;;;6227132;28;20057;-79
2022/08/01 01:27:23;;;;;;;2.38;1.35;;;22.00;69.70;;;;;;6227412;28;20073;-79
2022/08/01 01:30:30;;;;;;;4.05;2.08;;;22.00;70.00;;;;;;6224375;28;20056;-79
2022/08/01 01:33:34;;;;;;;2.72;1.08;;;21.90;70.30;;;;;;6223936;28;20060;-78
2022/08/01 01:36:37;;;;;;;2.22;1.33;;;21.90;70.60;;;;;;6226614;28;20046;-78
2022/08/01 01:39:41;;;;;;;3.20;1.35;;;21.90;70.70;;;;;;6226855;28;20060;-80
2022/08/01 01:42:44;;;;;;;1.27;1.00;;;21.90;70.80;;;;;;6226016;28;20165;-78
2022/08/01 01:45:49;;;;;;;1.50;1.10;;;21.90;71.00;;;;;;6226701;28;20041;-79
2022/08/01 01:48:52;;;;;;;4.03;1.75;;;21.80;71.30;;;;;;6225821;28;20041;-78
2022/08/01 01:51:57;;;;;;;3.25;1.40;;;21.80;71.50;;;;;;6227224;28;20054;-79
2022/08/01 01:55:02;;;;;;;2.15;1.40;;;21.80;71.60;;;;;;6227055;28;20058;-78
2022/08/01 01:58:05;;;;;;;2.72;1.55;;;21.80;71.70;;;;;;6226310;28;20504;-78
2022/08/01 02:01:11;;;;;;;2.78;1.40;;;21.80;71.90;;;;;;6226990;28;20530;-77
2022/08/01 02:04:13;;;;;;;1.73;1.08;;;21.80;71.80;;;;;;6226738;28;20666;-79
2022/08/01 02:07:20;;;;;;;2.25;1.10;;;21.80;72.00;;;;;;6226435;28;20049;-80
2022/08/01 02:10:23;;;;;;;2.95;1.50;;;21.80;72.30;;;;;;6226020;28;20511;-80
2022/08/01 02:13:25;;;;;;;2.05;1.40;;;21.80;72.40;;;;;;6227223;28;20068;-79
2022/08/01 02:16:35;;;;;;;3.00;1.20;;;21.80;72.70;;;;;;6178890;28;20045;-80
2022/08/01 02:19:37;;;;;;;2.72;1.15;;;21.80;73.00;;;;;;6226718;28;20053;-80
2022/08/01 02:22:43;;;;;;;4.00;1.33;;;21.70;73.10;;;;;;6226712;28;20076;-81
2022/08/01 02:25:50;;;;;;;3.53;1.52;;;21.60;73.50;;;;;;6226348;28;20046;-79
2022/08/01 02:28:56;;;;;;;1.85;1.50;;;21.60;74.10;;;;;;6225037;28;20049;-80
2022/08/01 02:32:01;;;;;;;5.85;1.08;;;21.50;74.50;;;;;;6225912;28;20121;-78
2022/08/01 02:35:03;;;;;;;1.58;1.02;;;21.50;74.80;;;;;;6225319;28;20527;-79
2022/08/01 02:38:06;;;;;;;1.85;1.23;;;21.40;75.30;;;;;;6225548;28;20062;-79
2022/08/01 02:41:10;;;;;;;1.90;1.10;;;21.40;75.50;;;;;;6226658;28;20049;-79
2022/08/01 02:44:18;;;;;;;4.22;1.65;;;21.40;75.60;;;;;;6227341;28;20073;-79
2022/08/01 02:47:24;;;;;;;2.90;1.10;;;21.40;75.90;;;;;;6226841;28;20053;-80
2022/08/01 02:50:27;;;;;;;3.05;1.88;;;21.40;76.00;;;;;;6226710;28;20046;-78
2022/08/01 02:53:36;;;;;;;1.83;1.20;;;21.30;76.10;;;;;;6226548;28;20396;-78
2022/08/01 02:56:40;;;;;;;3.38;1.60;;;21.30;76.40;;;;;;6226490;28;20042;-79
2022/08/01 02:59:43;;;;;;;2.70;1.40;;;21.30;76.70;;;;;;6226219;28;20058;-78
2022/08/01 03:02:48;;;;;;;3.35;1.58;;;21.30;76.90;;;;;;6226524;28;20050;-80
2022/08/01 03:05:50;;;;;;;3.17;1.10;;;21.30;77.00;;;;;;6226309;28;20064;-80
2022/08/01 03:08:53;;;;;;;2.65;1.45;;;21.20;77.20;;;;;;6226445;28;20049;-80
2022/08/01 03:11:58;;;;;;;1.88;1.15;;;21.20;77.50;;;;;;6225936;28;20064;-77
2022/08/01 03:15:01;;;;;;;2.70;1.33;;;21.20;77.70;;;;;;6226507;28;20397;-79
2022/08/01 03:18:07;;;;;;;5.32;2.47;;;21.10;77.80;;;;;;6225077;28;20046;-79
2022/08/01 03:21:10;;;;;;;4.10;1.40;;;21.20;78.30;;;;;;6225953;28;20050;-78
2022/08/01 03:24:13;;;;;;;4.93;1.52;;;21.10;78.40;;;;;;6225641;28;20065;-79
2022/08/01 03:27:15;;;;;;;11.43;1.55;;;21.10;78.50;;;;;;6225781;28;20072;-78
2022/08/01 03:30:17;;;;;;;3.20;1.77;;;21.00;78.80;;;;;;6226057;28;20045;-77
2022/08/01 03:33:20;;;;;;;8.02;1.58;;;21.00;78.80;;;;;;6224783;28;20065;-80
2022/08/01 03:36:26;;;;;;;5.50;1.70;;;21.00;78.90;;;;;;6225537;28;20052;-80
2022/08/01 03:39:32;;;;;;;21.17;3.80;;;21.00;79.10;;;;;;6225948;28;20054;-80
2022/08/01 03:42:38;;;;;;;4.47;1.75;;;20.90;79.60;;;;;;6225783;28;20057;-80
2022/08/01 03:45:43;;;;;;;2.83;1.65;;;21.00;79.60;;;;;;6226102;28;20696;-80
2022/08/01 03:48:54;;;;;;;3.15;1.70;;;21.10;80.10;;;;;;6230183;28;20101;-79
2022/08/01 03:51:56;;;;;;;9.98;1.65;;;21.10;79.20;;;;;;6230498;28;20060;-80
2022/08/01 03:55:02;;;;;;;2.17;1.30;;;21.20;79.10;;;;;;6231083;28;20056;-80
2022/08/01 03:58:05;;;;;;;8.10;2.47;;;21.20;79.10;;;;;;6229843;28;20068;-78
2022/08/01 04:01:09;;;;;;;3.40;1.80;;;21.20;78.90;;;;;;6228846;28;20372;-82
2022/08/01 04:04:12;;;;;;;4.10;1.75;;;21.20;79.00;;;;;;6227380;28;20507;-77
2022/08/01 04:07:25;;;;;;;4.90;1.95;;;21.20;79.00;;;;;;6227541;28;20042;-82
2022/08/01 04:10:27;;;;;;;5.97;2.13;;;21.20;79.30;;;;;;6229292;28;20070;-77
2022/08/01 04:13:28;;;;;;;2.95;1.60;;;21.20;79.40;;;;;;6248458;28;20049;-77
2022/08/01 04:16:30;;;;;;;1.60;1.23;;;21.10;79.60;;;;;;6241368;28;20048;-79
2022/08/01 04:19:33;;;;;;;2.53;1.50;;;21.10;79.60;;;;;;6229939;28;20064;-80
2022/08/01 04:22:35;;;;;;;3.35;1.65;;;21.10;79.50;;;;;;6230575;28;20052;-80
2022/08/01 04:25:39;;;;;;;9.60;1.80;;;21.20;79.40;;;;;;6230030;28;20045;-80
2022/08/01 04:28:43;;;;;;;3.17;1.83;;;21.20;79.30;;;;;;6229008;28;20049;-79
2022/08/01 04:31:48;;;;;;;3.33;1.80;;;21.20;79.30;;;;;;6229258;28;20058;-79
2022/08/01 04:34:51;;;;;;;2.13;1.40;;;21.30;79.10;;;;;;6222274;28;20042;-80
2022/08/01 04:37:54;;;;;;;1.70;1.23;;;21.40;78.80;;;;;;6229195;28;20048;-80
2022/08/01 04:40:57;;;;;;;2.63;1.50;;;21.60;78.30;;;;;;6230776;28;20049;-80
2022/08/01 04:44:00;;;;;;;3.00;1.20;;;21.80;78.00;;;;;;6230500;28;20054;-80
2022/08/01 04:47:04;;;;;;;2.08;1.35;;;21.90;77.50;;;;;;6230567;28;20054;-80
2022/08/01 04:50:09;;;;;;;3.28;1.85;;;22.10;76.90;;;;;;6229863;28;20135;-79
2022/08/01 04:53:16;;;;;;;4.55;1.98;;;22.20;76.30;;;;;;6230691;28;20050;-80
2022/08/01 04:56:18;;;;;;;3.20;1.30;;;22.30;76.00;;;;;;6229916;28;20046;-79
2022/08/01 05:02:39;;;;;;;6.65;1.50;;;22.50;75.50;;;;;;6230693;28;20536;-79
2022/08/01 05:05:43;;;;;;;4.43;1.65;;;22.70;75.10;;;;;;6233931;28;20415;-78
2022/08/01 05:08:45;;;;;;;5.32;1.88;;;22.80;74.60;;;;;;6230964;28;20129;-80
2022/08/01 05:11:47;;;;;;;3.08;1.65;;;23.00;74.20;;;;;;6231671;28;20105;-80
2022/08/01 05:14:49;;;;;;;6.18;1.25;;;23.20;73.60;;;;;;6230838;28;20416;-80
2022/08/01 05:17:50;;;;;;;2.78;1.42;;;23.40;73.10;;;;;;6229578;28;20038;-79
2022/08/01 05:20:53;;;;;;;3.97;1.63;;;23.70;72.60;;;;;;6229308;28;20164;-79
2022/08/01 05:23:55;;;;;;;3.92;2.08;;;23.90;72.00;;;;;;6227163;28;20050;-79
2022/08/01 05:26:58;;;;;;;3.92;1.42;;;24.70;70.30;;;;;;6227725;28;20045;-79
2022/08/01 05:29:59;;;;;;;2.58;1.60;;;26.00;66.10;;;;;;6223036;28;20042;-77
2022/08/01 05:33:01;;;;;;;2.83;1.83;;;26.90;62.90;;;;;;6224194;28;20045;-79
2022/08/01 05:36:04;;;;;;;3.63;1.50;;;27.20;61.70;;;;;;6223649;28;20054;-80
2022/08/01 05:39:07;;;;;;;3.72;1.27;;;27.10;61.30;;;;;;6200799;28;20046;-78
2022/08/01 05:42:08;;;;;;;11.27;1.60;;;27.10;61.30;;;;;;6200586;28;20078;-81
2022/08/01 05:45:11;;;;;;;2.25;1.60;;;27.30;61.00;;;;;;6214478;28;20049;-79
2022/08/01 05:48:13;;;;;;;3.42;1.42;;;27.60;60.10;;;;;;6227235;28;20057;-79
2022/08/01 05:51:16;;;;;;;2.55;1.40;;;28.20;58.70;;;;;;6228909;28;20050;-79
2022/08/01 05:54:17;;;;;;;2.30;1.33;;;29.00;56.50;;;;;;6228624;28;20395;-80
2022/08/01 05:57:19;;;;;;;4.70;1.48;;;29.80;54.40;;;;;;6227652;28;20550;-80
2022/08/01 06:00:21;;;;;;;2.25;1.13;;;30.70;52.30;;;;;;6228517;28;20464;-80
2022/08/01 06:03:23;;;;;;;3.47;1.25;;;31.70;50.00;;;;;;6229066;28;20050;-80
2022/08/01 06:06:26;;;;;;;3.60;0.85;;;32.40;47.90;;;;;;6231068;28;20050;-79
2022/08/01 06:09:28;;;;;;;1.98;1.17;;;31.50;48.60;;;;;;6229389;28;20134;-79
2022/08/01 06:12:32;;;;;;;1.60;0.98;;;30.70;50.30;;;;;;6228902;28;20143;-80
2022/08/01 06:15:34;;;;;;;3.13;1.17;;;30.60;51.20;;;;;;6227290;28;20426;-79
2022/08/01 06:18:36;;;;;;;4.05;1.08;;;30.80;50.70;;;;;;6227444;28;20061;-79
2022/08/01 06:21:39;;;;;;;2.55;1.02;;;30.60;51.00;;;;;;6227609;28;20045;-80
2022/08/01 06:24:41;;;;;;;1.33;0.93;;;30.20;52.10;;;;;;6228850;28;20042;-79
2022/08/01 06:27:42;;;;;;;2.78;1.10;;;29.80;53.20;;;;;;6227208;28;20061;-80
2022/08/01 06:30:44;;;;;;;6.22;2.33;;;29.40;53.90;;;;;;6227474;28;20121;-80
2022/08/01 06:33:46;;;;;;;7.35;2.10;;;28.80;55.80;;;;;;6226440;28;20403;-80
2022/08/01 06:36:49;;;;;;;9.65;4.95;;;28.20;56.90;;;;;;6219456;28;20050;-80
2022/08/01 06:39:51;;;;;;;4.40;2.63;;;27.80;58.30;;;;;;6227203;28;20054;-80
2022/08/01 06:42:52;;;;;;;4.25;1.77;;;27.30;60.30;;;;;;6225996;28;20054;-78
2022/08/01 06:45:54;;;;;;;2.38;1.45;;;27.20;60.40;;;;;;6226056;28;20050;-82
2022/08/01 06:48:56;;;;;;;1.67;1.38;;;27.30;60.60;;;;;;6226511;28;20038;-81
2022/08/01 06:51:59;;;;;;;5.15;1.70;;;27.40;60.70;;;;;;6226862;28;20061;-79
2022/08/01 06:55:01;;;;;;;4.75;2.35;;;27.20;61.00;;;;;;6226639;28;20508;-80
2022/08/01 06:58:03;;;;;;;3.95;2.35;;;27.20;61.50;;;;;;6224873;28;20041;-77
2022/08/01 07:01:06;;;;;;;3.53;2.13;;;27.00;61.80;;;;;;6202284;28;20061;-80
2022/08/01 07:04:08;;;;;;;5.40;1.90;;;26.90;62.30;;;;;;6216987;28;20058;-83
2022/08/01 07:07:11;;;;;;;7.10;2.53;;;27.00;62.30;;;;;;6213631;28;20052;-81
2022/08/01 07:10:13;;;;;;;5.50;1.50;;;27.30;62.20;;;;;;6226125;28;20045;-82
2022/08/01 07:13:20;;;;;;;3.75;1.83;;;27.50;61.60;;;;;;6226459;28;20180;-80
2022/08/01 07:16:22;;;;;;;1.80;1.00;;;27.50;61.40;;;;;;6226705;28;20539;-84
2022/08/01 07:19:23;;;;;;;1.33;0.90;;;27.50;61.60;;;;;;6226894;28;20050;-84
2022/08/01 07:22:26;;;;;;;2.50;1.02;;;27.40;61.70;;;;;;6229340;28;20045;-81
2022/08/01 07:25:28;;;;;;;1.88;1.33;;;27.50;61.70;;;;;;6231856;28;20054;-81
2022/08/01 07:28:30;;;;;;;2.95;1.45;;;27.60;61.60;;;;;;6230781;28;20042;-80
2022/08/01 07:31:32;;;;;;;2.25;1.17;;;27.70;61.50;;;;;;6231725;28;20057;-81
2022/08/01 07:34:34;;;;;;;3.03;1.38;;;27.70;61.20;;;;;;6231086;28;20057;-80
2022/08/01 07:37:37;;;;;;;1.92;0.95;;;27.70;61.40;;;;;;6227839;28;20048;-81
2022/08/01 07:40:38;;;;;;;2.63;1.10;;;27.90;61.00;;;;;;6230909;28;20045;-81
2022/08/01 07:43:40;;;;;;;1.48;0.85;;;28.00;60.60;;;;;;6231771;28;20050;-80
2022/08/01 07:46:42;;;;;;;4.82;1.15;;;28.10;60.50;;;;;;6235138;28;20052;-79
2022/08/01 07:49:44;;;;;;;1.77;1.17;;;27.90;60.40;;;;;;6245241;28;20058;-79
2022/08/01 07:52:47;;;;;;;1.67;0.60;;;27.90;60.70;;;;;;6236117;28;20053;-82
2022/08/01 07:55:49;;;;;;;3.13;1.38;;;28.40;60.30;;;;;;6231866;28;20077;-81
2022/08/01 07:58:50;;;;;;;3.65;1.10;;;29.10;59.20;;;;;;6229519;28;20046;-81
2022/08/01 08:01:52;;;;;;;4.82;0.80;;;29.70;57.30;;;;;;6224167;28;20140;-80
2022/08/01 08:04:54;;;;;;;3.78;0.80;;;30.00;55.60;;;;;;6206878;28;20046;-82
2022/08/01 08:07:57;;;;;;;3.15;0.73;;;30.20;54.90;;;;;;6207000;28;20057;-81
2022/08/01 08:10:58;;;;;;;2.22;0.80;;;30.40;54.40;;;;;;6207501;28;20046;-81
2022/08/01 08:14:00;;;;;;;2.25;0.75;;;30.40;54.10;;;;;;6220475;28;20053;-83
2022/08/01 08:17:02;;;;;;;1.83;0.65;;;30.50;53.40;;;;;;6230984;28;20058;-82
2022/08/01 08:20:05;;;;;;;1.95;0.85;;;30.40;53.60;;;;;;6230819;28;20113;-81
2022/08/01 08:26:25;;;;;;;1.40;0.70;;;30.50;53.50;;;;;;6237921;28;20073;-84
2022/08/01 08:29:29;;;;;;;2.25;0.43;;;30.70;53.10;;;;;;6226318;28;20060;-82
2022/08/01 08:32:31;;;;;;;2.47;0.90;;;30.80;52.70;;;;;;6225377;28;20046;-81
2022/08/01 08:35:32;;;;;;;2.15;0.70;;;30.70;53.00;;;;;;6226094;28;20129;-81
2022/08/01 08:38:36;;;;;;;1.83;0.40;;;30.90;52.60;;;;;;6226045;28;20511;-81
2022/08/01 08:41:38;;;;;;;1.80;0.55;;;30.90;52.70;;;;;;6228032;28;20049;-80
2022/08/01 08:44:41;;;;;;;2.05;0.73;;;31.20;52.50;;;;;;6227873;28;20057;-81
2022/08/01 08:47:46;;;;;;;4.22;0.80;;;31.70;51.80;;;;;;6227890;28;20050;-82
2022/08/01 08:50:49;;;;;;;1.58;0.60;;;32.20;50.70;;;;;;6227446;28;20173;-80
2022/08/01 08:53:54;;;;;;;3.03;0.85;;;32.50;49.90;;;;;;6227764;28;20046;-82
2022/08/01 08:56:56;;;;;;;2.92;0.77;;;32.90;49.20;;;;;;6227582;28;20046;-82
2022/08/01 08:59:58;;;;;;;1.60;0.57;;;33.10;49.00;;;;;;6227246;28;20045;-81
2022/08/01 09:02:59;;;;;;;4.95;0.70;;;33.00;48.40;;;;;;6227518;28;20136;-82
2022/08/01 09:06:01;;;;;;;2.83;0.77;;;33.10;48.40;;;;;;6227396;28;20046;-81
2022/08/01 09:09:05;;;;;;;2.88;0.50;;;33.20;48.10;;;;;;6226268;28;20401;-81
2022/08/01 09:12:07;;;;;;;5.32;0.63;;;33.40;47.40;;;;;;6226847;28;20049;-81
2022/08/01 09:15:09;;;;;;;4.40;1.10;;;33.50;47.30;;;;;;6226861;28;20053;-81
2022/08/01 09:18:27;;;;;;;1.80;0.52;;;33.40;47.40;;;;;;6227290;28;20038;-81
2022/08/01 09:21:29;;;;;;;1.80;0.75;;;33.60;46.90;;;;;;6226721;28;20057;-82
2022/08/01 09:24:33;;;;;;;3.15;0.93;;;33.60;46.90;;;;;;6226774;28;20059;-83
2022/08/01 09:27:37;;;;;;;1.42;0.70;;;33.60;46.40;;;;;;6226744;28;20744;-82
2022/08/01 09:30:40;;;;;;;1.40;0.65;;;33.40;46.00;;;;;;6229566;28;20097;-82
2022/08/01 09:33:49;;;;;;;6.40;0.95;;;32.90;47.10;;;;;;6228686;28;20041;-82
2022/08/01 09:36:54;;;;;;;1.45;0.70;;;32.80;47.00;;;;;;6227993;28;20058;-82
2022/08/01 09:39:57;;;;;;;7.45;1.02;;;32.90;47.30;;;;;;6227070;28;20602;-82
2022/08/01 09:43:11;;;;;;;1.52;0.60;;;33.00;46.80;;;;;;6227751;28;20057;-81
2022/08/01 09:46:13;;;;;;;0.88;0.60;;;33.00;46.60;;;;;;6226395;28;20546;-82
2022/08/01 09:49:15;;;;;;;1.13;0.50;;;33.10;46.90;;;;;;6226292;28;20426;-82
2022/08/01 09:52:19;;;;;;;0.88;0.50;;;33.20;46.40;;;;;;6226767;28;20407;-81
2022/08/01 09:55:23;;;;;;;1.88;0.65;;;33.20;46.40;;;;;;6226537;28;20053;-82
2022/08/01 09:58:25;;;;;;;1.67;0.60;;;33.20;46.50;;;;;;6225885;28;20423;-82
2022/08/01 10:01:27;;;;;;;7.03;1.40;;;33.50;46.30;;;;;;6225677;28;20065;-81
2022/08/01 10:04:29;;;;;;;2.60;0.60;;;33.40;46.10;;;;;;6226215;28;20046;-82
2022/08/01 10:07:30;;;;;;;4.97;0.63;;;33.10;46.20;;;;;;6227017;28;20080;-82
2022/08/01 10:10:34;;;;;;;3.03;0.80;;;32.90;46.70;;;;;;6225910;28;20045;-82
2022/08/01 10:13:36;;;;;;;3.58;0.70;;;32.60;47.10;;;;;;6226042;28;20059;-80
2022/08/01 10:16:37;;;;;;;2.75;0.70;;;32.60;47.20;;;;;;6225636;28;20052;-80
2022/08/01 10:19:42;;;;;;;1.02;0.60;;;32.50;47.30;;;;;;6225568;28;20240;-82
2022/08/01 10:22:44;;;;;;;1.98;0.60;;;32.40;47.80;;;;;;6225964;28;20057;-81
2022/08/01 10:25:49;;;;;;;2.28;0.70;;;32.50;47.90;;;;;;6226218;28;20050;-82
2022/08/01 10:28:52;;;;;;;1.63;0.98;;;32.60;47.30;;;;;;6226607;28;20038;-82
2022/08/01 10:31:53;;;;;;;1.40;0.55;;;32.80;47.20;;;;;;6227217;28;20054;-82
2022/08/01 10:34:56;;;;;;;1.00;0.57;;;32.90;47.00;;;;;;6227140;28;20054;-82
2022/08/01 10:37:58;;;;;;;2.22;0.80;;;33.00;46.60;;;;;;6225409;28;20050;-80
2022/08/01 10:41:04;;;;;;;2.85;1.00;;;32.90;46.70;;;;;;6225830;28;20042;-81
2022/08/01 10:44:07;;;;;;;5.57;0.70;;;32.80;46.40;;;;;;6226154;28;20450;-81
2022/08/01 10:47:12;;;;;;;2.28;0.80;;;32.70;46.80;;;;;;6225926;28;20056;-81
2022/08/01 10:50:23;;;;;;;3.80;0.80;;;32.70;47.20;;;;;;6225850;28;20053;-82
2022/08/01 10:53:26;;;;;;;2.40;0.60;;;32.80;46.80;;;;;;6225940;28;20340;-82
2022/08/01 10:56:40;;;;;;;0.98;0.57;;;32.70;47.00;;;;;;6227240;28;20049;-81
2022/08/01 10:59:49;;;;;;;3.75;0.55;;;32.70;47.00;;;;;;6232120;28;20049;-82
2022/08/01 11:03:01;;;;;;;1.50;0.88;;;33.20;46.80;;;;;;6232811;28;20503;-81
2022/08/01 11:06:05;;;;;;;4.72;1.42;;;33.80;45.70;;;;;;6231799;28;20054;-81
2022/08/01 11:09:23;;;;;;;3.35;1.25;;;34.10;44.80;;;;;;6230591;28;20053;-82
2022/08/01 11:12:39;;;;;;;1.98;0.93;;;33.90;44.70;;;;;;6230649;28;20070;-82
2022/08/01 11:15:42;;;;;;;2.67;0.98;;;34.40;44.40;;;;;;6230775;28;20057;-80
2022/08/01 11:18:51;;;;;;;2.15;1.20;;;34.80;42.60;;;;;;6219317;28;20412;-82
2022/08/01 11:22:03;;;;;;;3.25;0.70;;;34.60;42.90;;;;;;6224175;28;20042;-79
2022/08/01 11:25:06;;;;;;;0.88;0.50;;;34.20;43.50;;;;;;6222847;28;20068;-82
2022/08/01 11:28:20;;;;;;;6.15;0.80;;;34.10;43.80;;;;;;6232032;28;20064;-83
2022/08/01 11:31:33;;;;;;;7.05;1.25;;;34.00;43.60;;;;;;6231635;28;20046;-81
2022/08/01 11:34:54;;;;;;;4.60;1.23;;;34.00;43.30;;;;;;6231470;28;20050;-81
2022/08/01 11:37:56;;;;;;;1.38;0.93;;;34.20;42.90;;;;;;6232593;28;20046;-81
2022/08/01 11:41:11;;;;;;;1.55;0.70;;;34.60;42.80;;;;;;6231545;28;20092;-81
2022/08/01 11:44:17;;;;;;;2.40;0.43;;;35.20;41.70;;;;;;6231550;28;20050;-82
2022/08/01 11:47:39;;;;;;;0.60;0.40;;;35.40;42.10;;;;;;6235927;28;20050;-82
2022/08/01 11:50:42;;;;;;;3.83;0.60;;;35.50;42.30;;;;;;6225701;28;20431;-82
2022/08/01 11:53:47;;;;;;;1.77;0.50;;;35.50;42.40;;;;;;6207176;28;20052;-82
2022/08/01 11:56:49;;;;;;;5.80;0.57;;;35.70;42.20;;;;;;6206075;28;20049;-81
2022/08/01 11:59:53;;;;;;;2.78;0.75;;;35.90;41.50;;;;;;6206529;28;20050;-82
2022/08/01 12:02:59;;;;;;;1.23;0.47;;;36.00;41.50;;;;;;6207358;28;20050;-81
2022/08/01 12:06:03;;;;;;;1.03;0.60;;;36.40;40.60;;;;;;6206658;28;20042;-81
2022/08/01 12:09:17;;;;;;;4.18;0.85;;;36.30;40.40;;;;;;6205720;28;20121;-81
2022/08/01 12:12:20;;;;;;;2.65;0.50;;;36.40;40.20;;;;;;6206308;28;20476;-81
2022/08/01 12:15:24;;;;;;;2.08;0.95;;;36.70;38.90;;;;;;6206075;28;20050;-79
2022/08/01 12:18:26;;;;;;;3.80;0.50;;;36.70;38.90;;;;;;6216708;28;20038;-81
2022/08/01 12:21:29;;;;;;;2.95;0.57;;;36.50;38.70;;;;;;6237377;28;20053;-81
2022/08/01 12:24:31;;;;;;;2.10;0.50;;;36.50;38.50;;;;;;6231754;28;20037;-82
2022/08/01 12:27:33;;;;;;;1.42;0.43;;;36.50;38.40;;;;;;6232319;28;20057;-80
2022/08/01 12:30:36;;;;;;;2.17;0.55;;;36.60;38.70;;;;;;6231090;28;20090;-78
2022/08/01 12:33:37;;;;;;;0.70;0.30;;;36.30;38.40;;;;;;6231416;28;20066;-81
2022/08/01 12:36:40;;;;;;;2.20;0.50;;;36.00;38.60;;;;;;6230373;28;20042;-80
2022/08/01 12:39:42;;;;;;;4.07;0.40;;;35.70;39.20;;;;;;6231141;28;20540;-82
2022/08/01 12:42:46;;;;;;;0.30;0.30;;;35.80;39.10;;;;;;6232499;28;20052;-83
2022/08/01 12:45:51;;;;;;;0.88;0.50;;;35.70;38.50;;;;;;6231558;28;20042;-83
2022/08/01 12:48:52;;;;;;;4.20;0.73;;;35.80;38.10;;;;;;6231405;28;20048;-82
2022/08/01 12:51:56;;;;;;;1.65;0.32;;;36.20;38.00;;;;;;6217053;28;20050;-83
2022/08/01 12:55:02;;;;;;;3.03;0.65;;;36.60;37.60;;;;;;6209465;28;20504;-79
2022/08/01 12:58:06;;;;;;;1.07;0.67;;;36.90;37.10;;;;;;6206781;28;20054;-80
2022/08/01 13:01:10;;;;;;;0.75;0.50;;;37.00;36.60;;;;;;6206834;28;20052;-78
2022/08/01 13:04:11;;;;;;;4.50;0.80;;;36.80;37.00;;;;;;6207292;28;20050;-80
2022/08/01 13:07:14;;;;;;;1.42;0.85;;;37.00;36.70;;;;;;6204794;28;20066;-80
2022/08/01 13:10:26;;;;;;;1.23;0.50;;;37.30;35.90;;;;;;6202869;28;20270;-78
2022/08/01 13:13:38;;;;;;;5.38;0.70;;;37.30;35.60;;;;;;6204398;28;20046;-80
2022/08/01 13:16:47;;;;;;;3.10;0.73;;;37.30;35.80;;;;;;6204528;28;20042;-80
2022/08/01 13:19:51;;;;;;;4.47;0.45;;;37.50;35.60;;;;;;6221057;28;20042;-81
2022/08/01 13:22:55;;;;;;;2.28;0.32;;;37.60;35.40;;;;;;6225710;28;20128;-79
2022/08/01 13:25:57;;;;;;;2.55;0.47;;;37.80;35.80;;;;;;6223476;28;20103;-79
2022/08/01 13:29:05;;;;;;;3.65;0.70;;;38.00;35.10;;;;;;6226572;28;20049;-80
2022/08/01 13:32:14;;;;;;;0.65;0.40;;;38.20;34.90;;;;;;6229265;28;20063;-79
2022/08/01 13:35:20;;;;;;;1.27;0.57;;;38.00;34.50;;;;;;6226054;28;20065;-80
2022/08/01 13:41:39;;;;;;;2.03;0.22;;;37.60;35.40;;;;;;6227445;28;20056;-80
2022/08/01 13:44:41;;;;;;;2.03;0.30;;;37.50;35.50;;;;;;6226830;28;20041;-79
2022/08/01 13:47:45;;;;;;;1.17;0.40;;;37.30;36.00;;;;;;6226714;28;20451;-79
2022/08/01 13:50:46;;;;;;;1.38;0.20;;;37.10;36.10;;;;;;6218104;28;20042;-80
2022/08/01 13:53:49;;;;;;;0.43;0.30;;;36.90;36.50;;;;;;6201501;28;20532;-80
2022/08/01 13:56:51;;;;;;;0.60;0.30;;;36.60;36.40;;;;;;6202484;28;20050;-80
2022/08/01 13:59:53;;;;;;;1.00;0.50;;;36.50;36.50;;;;;;6201747;28;20051;-80
2022/08/01 14:02:55;;;;;;;0.98;0.30;;;36.50;36.40;;;;;;6202819;28;20061;-80
2022/08/01 14:05:57;;;;;;;3.10;0.73;;;36.70;37.10;;;;;;6202283;28;20053;-81
2022/08/01 14:09:00;;;;;;;4.03;1.05;;;36.80;36.10;;;;;;6206656;28;20034;-81
2022/08/01 14:12:01;;;;;;;0.63;0.40;;;36.60;36.30;;;;;;6204966;28;20050;-80
2022/08/01 14:15:04;;;;;;;0.90;0.25;;;36.70;36.70;;;;;;6205839;28;20060;-80
2022/08/01 14:18:06;;;;;;;2.53;0.25;;;36.90;36.80;;;;;;6208770;28;20048;-81
2022/08/01 14:21:08;;;;;;;1.55;0.20;;;36.80;37.00;;;;;;6231005;28;20041;-80
2022/08/01 14:24:11;;;;;;;0.52;0.30;;;36.60;37.20;;;;;;6230138;28;20049;-80
2022/08/01 14:27:12;;;;;;;0.85;0.35;;;36.60;37.20;;;;;;6229109;28;20075;-80
2022/08/01 14:30:14;;;;;;;2.17;0.30;;;36.60;36.90;;;;;;6227450;28;20048;-80
2022/08/01 14:33:16;;;;;;;1.30;0.35;;;36.40;37.00;;;;;;6228343;28;20046;-80
2022/08/01 14:36:18;;;;;;;1.27;0.40;;;36.30;37.20;;;;;;6229621;28;20042;-80
2022/08/01 14:39:21;;;;;;;0.65;0.28;;;36.50;37.20;;;;;;6228178;28;20458;-79
2022/08/01 14:42:23;;;;;;;0.40;0.20;;;36.70;37.30;;;;;;6227753;28;20042;-80
2022/08/01 14:45:24;;;;;;;1.40;0.30;;;36.80;36.70;;;;;;6226290;28;20049;-80
2022/08/01 14:48:26;;;;;;;0.95;0.25;;;36.90;36.80;;;;;;6225299;28;20494;-79
2022/08/01 14:51:32;;;;;;;0.98;0.30;;;37.00;36.90;;;;;;6217436;28;20052;-80
2022/08/01 14:54:35;;;;;;;1.10;0.30;;;36.80;36.80;;;;;;6225294;28;20046;-78
2022/08/01 14:57:38;;;;;;;0.85;0.30;;;36.50;36.80;;;;;;6225836;28;20157;-80
2022/08/01 15:00:40;;;;;;;1.90;0.73;;;36.20;37.30;;;;;;6225244;28;20655;-78
2022/08/01 15:03:42;;;;;;;1.75;0.40;;;36.10;37.50;;;;;;6225653;28;20053;-78
2022/08/01 15:06:43;;;;;;;0.40;0.20;;;35.80;37.90;;;;;;6224776;28;20045;-80
2022/08/01 15:09:46;;;;;;;0.65;0.28;;;35.60;38.30;;;;;;6225100;28;20129;-79
2022/08/01 15:12:48;;;;;;;3.58;0.30;;;35.30;38.80;;;;;;6226368;28;20148;-78
2022/08/01 15:15:50;;;;;;;1.75;0.30;;;35.10;39.30;;;;;;6226280;28;20053;-79
2022/08/01 15:18:51;;;;;;;1.45;0.22;;;34.90;39.70;;;;;;6221869;28;20042;-80
2022/08/01 15:21:53;;;;;;;1.02;0.30;;;34.70;40.10;;;;;;6221420;28;20065;-77
2022/08/01 15:24:59;;;;;;;1.10;0.38;;;34.40;40.60;;;;;;6228252;28;20109;-79
2022/08/01 15:28:00;;;;;;;2.47;0.20;;;34.30;41.00;;;;;;6225638;28;20057;-78
2022/08/01 15:31:02;;;;;;;0.22;0.10;;;34.10;41.30;;;;;;6222613;28;20057;-78
2022/08/01 15:34:04;;;;;;;3.33;0.60;;;34.00;41.40;;;;;;6224904;28;20051;-79
2022/08/01 15:37:07;;;;;;;0.68;0.20;;;33.80;41.70;;;;;;6225527;28;20440;-79
2022/08/01 15:40:12;;;;;;;3.20;0.30;;;33.80;42.00;;;;;;6224057;28;20057;-78
2022/08/01 15:43:13;;;;;;;1.45;0.40;;;33.80;41.90;;;;;;6229025;28;20057;-78
2022/08/01 15:46:15;;;;;;;0.20;0.20;;;33.80;42.00;;;;;;6230292;28;20550;-78
2022/08/01 15:49:18;;;;;;;1.85;0.40;;;33.70;41.80;;;;;;6229471;28;20076;-79
2022/08/01 15:52:20;;;;;;;1.08;0.43;;;33.60;42.10;;;;;;6213116;28;20046;-78
2022/08/01 15:55:23;;;;;;;0.30;0.25;;;33.50;42.30;;;;;;6208709;28;20056;-78
2022/08/01 15:58:25;;;;;;;2.10;0.30;;;33.40;42.60;;;;;;6205985;28;20435;-80
2022/08/01 16:01:27;;;;;;;2.08;0.30;;;33.10;42.60;;;;;;6204582;28;20486;-79
2022/08/01 16:04:29;;;;;;;1.85;0.40;;;33.00;43.10;;;;;;6205400;28;20120;-79